createdAt,value
2019-02-07T00:01:15.809Z,33.50
2019-02-07T00:03:45.487Z,32.77
2019-02-07T00:06:14.893Z,34.37
2019-02-07T00:08:44.238Z,33.23
2019-02-07T00:11:13.608Z,35.50
2019-02-07T00:13:42.997Z,30.53
2019-02-07T00:16:12.360Z,31.13
2019-02-07T00:18:41.934Z,35.67
2019-02-07T00:21:11.640Z,37.90
2019-02-07T00:23:41.074Z,31.07
2019-02-07T00:26:10.463Z,32.27
2019-02-07T00:28:39.836Z,27.67
2019-02-07T00:31:09.241Z,31.67
2019-02-07T00:33:39.008Z,32.63
2019-02-07T00:36:08.420Z,31.87
2019-02-07T00:38:37.772Z,31.90
2019-02-07T00:41:07.127Z,30.53
2019-02-07T00:43:36.534Z,28.10
2019-02-07T00:46:06.044Z,32.70
2019-02-07T00:48:35.606Z,28.50
2019-02-07T00:51:05.116Z,30.80
2019-02-07T00:53:34.459Z,31.90
2019-02-07T00:56:03.854Z,34.27
2019-02-07T00:58:33.262Z,34.77
2019-02-07T01:01:02.695Z,33.07
2019-02-07T01:03:32.071Z,30.37
2019-02-07T01:06:01.356Z,32.60
2019-02-07T01:08:30.776Z,27.30
2019-02-07T01:11:00.164Z,34.30
2019-02-07T01:13:29.511Z,34.50
2019-02-07T01:15:58.924Z,31.77
2019-02-07T01:18:28.311Z,31.93
2019-02-07T01:20:57.654Z,35.57
2019-02-07T01:23:27.056Z,32.30
2019-02-07T01:25:56.362Z,36.07
2019-02-07T01:28:25.737Z,34.43
2019-02-07T01:30:55.106Z,36.93
2019-02-07T01:33:24.469Z,35.20
2019-02-07T01:35:53.865Z,38.57
2019-02-07T01:38:23.167Z,36.13
2019-02-07T01:40:52.523Z,33.57
2019-02-07T01:43:21.891Z,35.70
2019-02-07T01:45:51.373Z,32.17
2019-02-07T01:48:20.861Z,34.87
2019-02-07T01:50:50.255Z,35.57
2019-02-07T01:53:19.653Z,37.83
2019-02-07T01:55:49.039Z,36.57
2019-02-07T01:58:18.365Z,38.17
2019-02-07T02:00:47.914Z,35.00
2019-02-07T02:03:21.787Z,34.27
2019-02-07T02:05:51.243Z,35.47
2019-02-07T02:08:20.669Z,35.40
2019-02-07T02:10:50.094Z,34.97
2019-02-07T02:13:19.544Z,34.27
2019-02-07T02:15:49.301Z,33.33
2019-02-07T02:18:18.667Z,32.60
2019-02-07T02:20:48.063Z,34.00
2019-02-07T02:23:17.379Z,35.63
2019-02-07T02:25:46.787Z,33.17
2019-02-07T02:28:16.155Z,35.77
2019-02-07T02:30:45.844Z,31.60
2019-02-07T02:33:15.215Z,33.10
2019-02-07T02:35:44.584Z,33.13
2019-02-07T02:38:14.005Z,32.10
2019-02-07T02:40:43.367Z,35.23
2019-02-07T02:43:12.761Z,30.03
2019-02-07T02:45:42.566Z,29.37
2019-02-07T02:48:11.966Z,33.23
2019-02-07T02:50:41.390Z,31.10
2019-02-07T02:53:10.797Z,29.00
2019-02-07T02:55:42.795Z,30.53
2019-02-07T02:58:12.199Z,31.83
2019-02-07T03:01:16.293Z,28.80
2019-02-07T03:03:55.192Z,28.97
2019-02-07T03:06:59.144Z,31.07
2019-02-07T03:09:51.416Z,26.67
2019-02-07T03:12:45.151Z,25.70
2019-02-07T03:15:49.193Z,27.97
2019-02-07T03:18:30.007Z,28.07
2019-02-07T03:21:17.512Z,26.53
2019-02-07T03:24:05.871Z,26.30
2019-02-07T03:27:13.328Z,24.97
2019-02-07T03:30:16.989Z,27.27
2019-02-07T03:33:06.400Z,27.37
2019-02-07T03:35:53.700Z,23.50
2019-02-07T03:38:47.999Z,24.67
2019-02-07T03:41:45.288Z,22.73
2019-02-07T03:44:40.674Z,22.20
2019-02-07T03:47:44.097Z,22.17
2019-02-07T03:50:31.295Z,22.03
2019-02-07T03:53:28.591Z,23.90
2019-02-07T03:56:35.071Z,18.87
2019-02-07T03:59:42.472Z,21.17
2019-02-07T04:02:33.779Z,18.47
2019-02-07T04:05:28.253Z,20.70
2019-02-07T04:08:28.564Z,20.93
2019-02-07T04:11:19.739Z,18.67
2019-02-07T04:14:06.032Z,18.97
2019-02-07T04:16:53.265Z,19.83
2019-02-07T04:19:50.428Z,19.73
2019-02-07T04:22:38.759Z,20.60
2019-02-07T04:25:26.106Z,19.63
2019-02-07T04:28:13.409Z,17.33
2019-02-07T04:31:01.647Z,23.17
2019-02-07T04:33:45.729Z,17.13
2019-02-07T04:36:31.585Z,19.70
2019-02-07T04:39:16.271Z,19.00
2019-02-07T04:42:03.280Z,17.10
2019-02-07T04:44:54.633Z,15.23
2019-02-07T04:47:42.598Z,17.33
2019-02-07T04:50:29.538Z,18.97
2019-02-07T04:53:20.692Z,16.90
2019-02-07T04:56:07.701Z,16.27
2019-02-07T04:59:05.105Z,16.17
2019-02-07T05:01:52.091Z,16.17
2019-02-07T05:04:29.764Z,16.97
2019-02-07T05:07:17.268Z,19.23
2019-02-07T05:10:19.953Z,15.33
2019-02-07T05:13:20.629Z,15.80
2019-02-07T05:16:07.676Z,14.97
2019-02-07T05:18:59.463Z,16.33
2019-02-07T05:21:47.226Z,15.20
2019-02-07T05:24:38.363Z,16.37
2019-02-07T05:27:25.292Z,15.17
2019-02-07T05:30:06.798Z,14.97
2019-02-07T05:32:55.134Z,13.63
2019-02-07T05:35:43.459Z,14.47
2019-02-07T05:38:31.765Z,14.23
2019-02-07T05:41:38.414Z,13.87
2019-02-07T05:44:17.708Z,15.80
2019-02-07T05:47:12.079Z,13.20
2019-02-07T05:50:00.414Z,13.37
2019-02-07T05:52:47.316Z,12.27
2019-02-07T05:55:41.907Z,11.67
2019-02-07T05:58:42.324Z,12.80
2019-02-07T06:01:33.811Z,12.07
2019-02-07T06:04:34.074Z,12.53
2019-02-07T06:07:21.115Z,12.30
2019-02-07T06:10:25.564Z,14.13
2019-02-07T06:13:13.900Z,12.27
2019-02-07T06:16:08.469Z,14.57
2019-02-07T06:18:59.249Z,10.63
2019-02-07T06:21:54.772Z,11.20
2019-02-07T06:24:58.524Z,11.30
2019-02-07T06:27:55.920Z,10.40
2019-02-07T06:33:52.204Z,10.00
2019-02-07T06:36:43.310Z,10.47
2019-02-07T06:39:31.821Z,9.63
2019-02-07T06:42:20.167Z,9.17
2019-02-07T06:45:07.403Z,9.67
2019-02-07T06:47:54.971Z,11.23
2019-02-07T06:50:49.097Z,7.80
2019-02-07T06:53:36.285Z,9.50
2019-02-07T06:56:23.747Z,6.40
2019-02-07T06:59:21.110Z,7.00
2019-02-07T07:02:08.445Z,6.77
2019-02-07T07:04:59.504Z,7.30
2019-02-07T07:07:46.712Z,7.30
2019-02-07T07:10:44.109Z,7.40
2019-02-07T07:13:47.981Z,6.83
2019-02-07T07:16:39.282Z,7.03
2019-02-07T07:19:26.480Z,6.87
2019-02-07T07:22:23.955Z,7.03
2019-02-07T07:25:21.526Z,6.57
2019-02-07T07:28:13.011Z,7.20
2019-02-07T07:31:00.125Z,7.57
2019-02-07T07:33:40.438Z,6.07
2019-02-07T07:36:35.093Z,6.67
2019-02-07T07:39:31.081Z,6.37
2019-02-07T07:42:18.093Z,7.00
2019-02-07T07:45:05.602Z,6.67
2019-02-07T07:47:53.963Z,6.60
2019-02-07T07:50:45.309Z,10.17
2019-02-07T07:53:34.061Z,8.80
2019-02-07T07:56:21.104Z,15.37
2019-02-07T07:59:08.696Z,10.27
2019-02-07T08:01:55.859Z,11.90
2019-02-07T08:04:42.184Z,15.07
2019-02-07T08:07:26.336Z,15.13
2019-02-07T08:10:33.006Z,14.20
2019-02-07T08:13:39.541Z,11.70
2019-02-07T08:16:26.680Z,18.23
2019-02-07T08:19:13.682Z,18.30
2019-02-07T08:22:05.350Z,16.80
2019-02-07T08:24:56.843Z,17.47
2019-02-07T08:27:57.301Z,13.63
2019-02-07T08:30:48.407Z,18.07
2019-02-07T08:33:54.899Z,21.23
2019-02-07T08:36:49.256Z,15.17
2019-02-07T08:39:38.292Z,18.30
2019-02-07T08:42:29.483Z,20.30
2019-02-07T08:45:17.861Z,19.03
2019-02-07T08:48:18.260Z,23.40
2019-02-07T08:51:05.395Z,22.77
2019-02-07T08:54:05.597Z,16.70
2019-02-07T08:56:56.716Z,16.90
2019-02-07T09:00:00.188Z,20.87
2019-02-07T09:02:52.081Z,16.00
2019-02-07T09:05:40.539Z,16.27
2019-02-07T09:08:31.907Z,20.20
2019-02-07T09:11:26.235Z,18.73
2019-02-07T09:14:24.877Z,22.77
2019-02-07T09:17:22.232Z,17.00
2019-02-07T09:20:30.034Z,15.37
2019-02-07T09:23:22.124Z,19.20
2019-02-07T09:26:09.069Z,20.20
2019-02-07T09:28:58.992Z,20.90
2019-02-07T09:32:05.412Z,15.43
2019-02-07T09:34:56.546Z,14.73
2019-02-07T09:37:53.794Z,16.17
2019-02-07T09:40:50.917Z,19.77
2019-02-07T09:43:38.675Z,19.80
2019-02-07T09:46:45.237Z,18.43
2019-02-07T09:49:25.669Z,16.47
2019-02-07T09:52:29.179Z,22.77
2019-02-07T09:55:16.252Z,21.73
2019-02-07T09:58:24.127Z,15.93
2019-02-07T10:01:16.931Z,14.23
2019-02-07T10:03:56.106Z,17.80
2019-02-07T10:06:53.701Z,17.57
2019-02-07T10:09:55.937Z,24.93
2019-02-07T10:12:43.306Z,22.63
2019-02-07T10:15:30.291Z,17.00
2019-02-07T10:18:18.646Z,19.60
2019-02-07T10:21:06.978Z,16.13
2019-02-07T10:23:55.784Z,19.90
2019-02-07T10:26:53.111Z,19.40
2019-02-07T10:29:44.614Z,21.87
2019-02-07T10:32:42.279Z,17.87
2019-02-07T10:35:43.056Z,18.40
2019-02-07T10:38:27.043Z,16.03
2019-02-07T10:41:21.203Z,19.10
2019-02-07T10:44:21.749Z,17.50
2019-02-07T10:47:10.079Z,20.90
2019-02-07T10:49:59.024Z,17.37
2019-02-07T10:52:40.625Z,19.73
2019-02-07T10:55:27.786Z,18.93
2019-02-07T10:58:21.970Z,11.67
2019-02-07T11:01:09.192Z,20.40
2019-02-07T11:06:48.309Z,24.10
2019-02-07T11:09:32.264Z,17.43
2019-02-07T11:12:23.463Z,22.40
2019-02-07T11:15:18.191Z,28.60
2019-02-07T11:18:05.819Z,17.63
2019-02-07T11:21:12.573Z,19.57
2019-02-07T11:23:59.754Z,19.27
2019-02-07T11:26:56.975Z,20.27
2019-02-07T11:29:48.104Z,21.00
2019-02-07T11:32:46.867Z,15.30
2019-02-07T11:35:35.425Z,16.60
2019-02-07T11:38:33.003Z,13.87
2019-02-07T11:41:39.102Z,20.27
2019-02-07T11:44:23.748Z,17.03
2019-02-07T11:47:30.446Z,14.87
2019-02-07T11:50:40.825Z,16.87
2019-02-07T11:53:27.982Z,18.97
2019-02-07T11:56:23.224Z,18.23
2019-02-07T11:59:10.081Z,18.07
2019-02-07T12:02:08.863Z,21.13
2019-02-07T12:04:48.876Z,19.43
2019-02-07T12:07:46.122Z,20.00
2019-02-07T12:10:41.414Z,15.33
2019-02-07T12:13:24.761Z,20.20
2019-02-07T12:16:13.139Z,16.93
2019-02-07T12:19:18.116Z,12.67
2019-02-07T12:22:07.899Z,19.63
2019-02-07T12:24:56.858Z,16.07
2019-02-07T12:27:45.549Z,19.10
2019-02-07T12:33:28.310Z,11.30
2019-02-07T12:36:04.232Z,10.53
2019-02-07T12:38:51.550Z,14.17
2019-02-07T12:41:38.922Z,15.03
2019-02-07T12:44:36.577Z,18.17
2019-02-07T12:47:23.932Z,14.63
2019-02-07T12:50:21.537Z,14.97
2019-02-07T12:52:59.340Z,13.17
2019-02-07T12:55:52.228Z,13.30
2019-02-07T12:58:36.912Z,11.37
2019-02-07T13:01:37.897Z,14.90
2019-02-07T13:04:26.847Z,12.73
2019-02-07T13:07:15.355Z,18.40
2019-02-07T13:10:12.454Z,10.90
2019-02-07T13:12:59.492Z,13.13
2019-02-07T13:15:46.797Z,18.60
2019-02-07T13:18:28.272Z,10.20
2019-02-07T13:21:25.933Z,12.40
2019-02-07T13:24:27.228Z,16.70
2019-02-07T13:27:15.592Z,13.03
2019-02-07T13:30:03.608Z,11.10
2019-02-07T13:32:52.171Z,11.73
2019-02-07T13:35:46.532Z,12.13
2019-02-07T13:38:37.913Z,11.23
2019-02-07T13:41:24.953Z,10.50
2019-02-07T13:44:21.471Z,10.80
2019-02-07T13:47:07.913Z,9.43
2019-02-07T13:49:52.043Z,12.27
2019-02-07T13:52:36.843Z,11.70
2019-02-07T13:55:28.322Z,8.93
2019-02-07T13:58:13.503Z,9.17
2019-02-07T14:01:00.731Z,12.47
2019-02-07T14:03:53.204Z,10.07
2019-02-07T14:06:44.321Z,10.13
2019-02-07T14:09:28.133Z,9.43
2019-02-07T14:12:25.705Z,11.77
2019-02-07T14:15:09.515Z,11.20
2019-02-07T14:18:04.792Z,10.30
2019-02-07T14:21:11.633Z,9.73
2019-02-07T14:23:59.027Z,10.63
2019-02-07T14:26:43.037Z,10.80
2019-02-07T14:29:31.359Z,8.00
2019-02-07T14:32:18.317Z,7.77
2019-02-07T14:35:08.259Z,9.37
2019-02-07T14:37:55.235Z,12.87
2019-02-07T14:40:36.018Z,8.93
2019-02-07T14:43:38.111Z,9.73
2019-02-07T14:46:35.860Z,6.80
2019-02-07T14:49:05.274Z,6.63
2019-02-07T14:51:34.622Z,9.50
2019-02-07T14:54:05.580Z,7.87
2019-02-07T14:56:35.090Z,7.37
2019-02-07T14:59:04.765Z,6.80
2019-02-07T15:01:34.175Z,8.47
2019-02-07T15:04:03.565Z,9.83
2019-02-07T15:06:33.053Z,8.43
2019-02-07T15:09:02.541Z,5.63
2019-02-07T15:11:32.151Z,8.87
2019-02-07T15:14:01.551Z,8.67
2019-02-07T15:16:30.974Z,8.20
2019-02-07T15:19:00.362Z,8.00
2019-02-07T15:21:29.745Z,5.60
2019-02-07T15:23:59.126Z,7.93
2019-02-07T15:26:28.708Z,6.83
2019-02-07T15:28:58.954Z,5.87
2019-02-07T15:31:28.396Z,7.03
2019-02-07T15:33:57.815Z,12.20
2019-02-07T15:36:27.192Z,6.03
2019-02-07T15:38:56.466Z,6.57
2019-02-07T15:41:25.978Z,6.37
2019-02-07T15:43:55.374Z,6.80
2019-02-07T15:46:25.155Z,6.23
2019-02-07T15:48:54.535Z,8.27
2019-02-07T15:51:23.975Z,12.97
2019-02-07T15:53:53.395Z,5.37
2019-02-07T15:56:23.071Z,7.37
2019-02-07T16:02:10.156Z,7.43
2019-02-07T16:04:42.156Z,8.50
2019-02-07T16:07:11.571Z,7.60
2019-02-07T16:09:40.968Z,6.03
2019-02-07T16:12:10.283Z,7.90
2019-02-07T16:14:43.124Z,7.70
2019-02-07T16:17:12.508Z,8.10
2019-02-07T16:19:41.832Z,7.57
2019-02-07T16:22:11.236Z,9.67
2019-02-07T16:24:40.750Z,10.73
2019-02-07T16:27:10.130Z,8.63
2019-02-07T16:29:40.028Z,9.93
2019-02-07T16:32:09.392Z,10.13
2019-02-07T16:34:38.740Z,11.60
2019-02-07T16:37:08.084Z,12.43
2019-02-07T16:39:37.450Z,13.43
2019-02-07T16:42:08.115Z,7.10
2019-02-07T16:44:37.804Z,9.57
2019-02-07T16:47:07.170Z,7.23
2019-02-07T16:49:36.703Z,11.97
2019-02-07T16:52:07.679Z,8.77
2019-02-07T16:54:37.042Z,8.07
2019-02-07T16:57:06.457Z,6.23
2019-02-07T16:59:35.832Z,12.97
2019-02-07T17:02:05.318Z,14.23
2019-02-07T17:04:34.761Z,11.43
2019-02-07T17:07:04.101Z,8.77
2019-02-07T17:09:41.511Z,10.07
2019-02-07T17:12:11.226Z,11.93
2019-02-07T17:14:40.694Z,10.13
2019-02-07T17:17:10.062Z,7.73
2019-02-07T17:19:39.447Z,12.20
2019-02-07T17:22:08.823Z,12.53
2019-02-07T17:24:38.201Z,9.13
2019-02-07T17:27:07.965Z,10.17
2019-02-07T17:29:37.357Z,10.03
2019-02-07T17:32:06.623Z,10.87
2019-02-07T17:34:36.005Z,9.83
2019-02-07T17:37:05.277Z,10.17
2019-02-07T17:39:34.695Z,9.40
2019-02-07T17:42:04.904Z,10.57
2019-02-07T17:44:34.177Z,9.67
2019-02-07T17:47:03.663Z,10.40
2019-02-07T17:49:33.702Z,11.07
2019-02-07T17:52:03.546Z,7.27
2019-02-07T17:54:32.950Z,9.27
2019-02-07T17:57:02.878Z,13.97
2019-02-07T17:59:32.243Z,11.03
2019-02-07T18:02:01.677Z,12.43
2019-02-07T18:04:30.990Z,10.27
2019-02-07T18:07:00.351Z,10.27
2019-02-07T18:09:29.733Z,10.73
2019-02-07T18:11:59.490Z,9.70
2019-02-07T18:14:28.887Z,8.87
2019-02-07T18:16:58.169Z,12.53
2019-02-07T18:19:27.519Z,10.00
2019-02-07T18:21:57.373Z,9.07
2019-02-07T18:24:26.748Z,9.77
2019-02-07T18:26:56.471Z,13.93
2019-02-07T18:29:25.866Z,11.70
2019-02-07T18:31:55.236Z,12.97
2019-02-07T18:34:24.510Z,19.93
2019-02-07T18:36:53.881Z,11.73
2019-02-07T18:39:23.244Z,14.03
2019-02-07T18:41:52.903Z,12.77
2019-02-07T18:44:22.300Z,12.30
2019-02-07T18:46:51.644Z,14.23
2019-02-07T18:49:21.010Z,11.60
2019-02-07T18:51:50.341Z,10.90
2019-02-07T18:54:19.772Z,7.80
2019-02-07T18:56:49.064Z,7.73
2019-02-07T18:59:18.454Z,9.13
2019-02-07T19:01:47.846Z,11.33
2019-02-07T19:04:17.225Z,9.20
2019-02-07T19:06:46.593Z,18.13
2019-02-07T19:09:16.802Z,10.20
2019-02-07T19:11:46.181Z,8.47
2019-02-07T19:14:15.517Z,9.17
2019-02-07T19:16:44.896Z,10.10
2019-02-07T19:19:14.259Z,8.83
2019-02-07T19:21:43.580Z,12.57
2019-02-07T19:24:12.963Z,11.83
2019-02-07T19:26:42.319Z,15.20
2019-02-07T19:29:11.700Z,8.43
2019-02-07T19:31:41.059Z,13.77
2019-02-07T19:34:10.484Z,7.97
2019-02-07T19:36:39.853Z,17.10
2019-02-07T19:39:10.302Z,15.47
2019-02-07T19:41:39.759Z,15.47
2019-02-07T19:44:09.328Z,12.67
2019-02-07T19:46:38.645Z,16.07
2019-02-07T19:49:08.014Z,14.90
2019-02-07T19:51:37.369Z,15.50
2019-02-07T19:54:06.757Z,14.37
2019-02-07T19:56:36.143Z,11.77
2019-02-07T19:59:05.718Z,13.60
2019-02-07T20:01:35.092Z,10.77
2019-02-07T20:04:04.902Z,11.53
2019-02-07T20:06:34.302Z,9.77
2019-02-07T20:09:05.268Z,11.63
2019-02-07T20:11:34.938Z,9.63
2019-02-07T20:14:05.086Z,10.90
2019-02-07T20:16:34.472Z,12.20
2019-02-07T20:19:03.853Z,12.80
2019-02-07T20:21:33.236Z,13.37
2019-02-07T20:24:02.616Z,10.37
2019-02-07T20:26:31.985Z,10.23
2019-02-07T20:29:01.377Z,10.40
2019-02-07T20:31:31.185Z,11.90
2019-02-07T20:34:00.541Z,13.63
2019-02-07T20:36:29.935Z,12.47
2019-02-07T20:38:59.196Z,14.03
2019-02-07T20:41:28.504Z,11.83
2019-02-07T20:43:57.899Z,13.17
2019-02-07T20:46:27.290Z,11.47
2019-02-07T20:48:56.704Z,13.97
2019-02-07T20:51:26.090Z,12.23
2019-02-07T20:53:55.499Z,8.23
2019-02-07T20:56:24.861Z,9.63
2019-02-07T20:58:54.210Z,11.97
2019-02-07T21:01:23.908Z,14.67
2019-02-07T21:03:53.740Z,14.63
2019-02-07T21:06:23.144Z,19.17
2019-02-07T21:08:52.529Z,13.50
2019-02-07T21:11:21.902Z,13.70
2019-02-07T21:13:51.292Z,14.60
2019-02-07T21:16:20.719Z,9.00
2019-02-07T21:18:50.315Z,16.93
2019-02-07T21:21:19.710Z,10.30
2019-02-07T21:23:49.079Z,12.97
2019-02-07T21:26:18.427Z,13.23
2019-02-07T21:28:47.821Z,13.90
2019-02-07T21:31:17.190Z,14.80
2019-02-07T21:33:46.581Z,12.40
2019-02-07T21:36:16.211Z,14.77
2019-02-07T21:38:45.612Z,13.83
2019-02-07T21:41:14.973Z,13.63
2019-02-07T21:43:44.316Z,14.93
2019-02-07T21:46:13.712Z,13.60
2019-02-07T21:48:43.129Z,16.03
2019-02-07T21:51:12.419Z,13.33
2019-02-07T21:53:42.078Z,12.20
2019-02-07T21:56:11.454Z,12.03
2019-02-07T21:58:40.818Z,11.67
2019-02-07T22:01:10.168Z,13.27
2019-02-07T22:03:39.589Z,10.57
2019-02-07T22:06:08.971Z,16.13
2019-02-07T22:08:38.627Z,11.23
2019-02-07T22:11:08.007Z,13.63
2019-02-07T22:13:37.870Z,11.13
2019-02-07T22:16:07.207Z,7.63
2019-02-07T22:18:36.578Z,10.73
2019-02-07T22:21:05.977Z,13.27
2019-02-07T22:23:35.590Z,14.13
2019-02-07T22:26:04.922Z,10.60
2019-02-07T22:28:34.314Z,10.17
2019-02-07T22:31:03.730Z,13.70
2019-02-07T22:33:33.060Z,14.17
2019-02-07T22:36:02.319Z,12.07
2019-02-07T22:38:32.130Z,13.07
2019-02-07T22:41:01.505Z,11.83
2019-02-07T22:43:30.889Z,12.30
2019-02-07T22:46:00.237Z,14.03
2019-02-07T22:48:29.617Z,14.37
2019-02-07T22:50:58.958Z,9.60
2019-02-07T22:53:28.707Z,11.10
2019-02-07T22:55:58.109Z,11.67
2019-02-07T22:58:27.486Z,17.80
2019-02-07T23:01:21.101Z,14.67
2019-02-07T23:03:55.852Z,13.37
2019-02-07T23:06:25.235Z,14.77
2019-02-07T23:08:54.499Z,13.93
2019-02-07T23:11:24.254Z,9.20
2019-02-07T23:13:53.652Z,12.40
2019-02-07T23:16:23.192Z,8.50
2019-02-07T23:18:52.770Z,7.83
2019-02-07T23:21:22.118Z,10.83
2019-02-07T23:23:51.501Z,11.40
2019-02-07T23:26:20.834Z,11.80
2019-02-07T23:28:50.222Z,14.43
2019-02-07T23:31:19.533Z,14.03
2019-02-07T23:33:48.895Z,14.63
2019-02-07T23:36:18.152Z,17.40
2019-02-07T23:38:47.545Z,17.10
2019-02-07T23:41:16.933Z,10.13
2019-02-07T23:43:46.460Z,11.97
2019-02-07T23:46:15.835Z,14.03
2019-02-07T23:48:45.497Z,10.53
2019-02-07T23:51:14.788Z,10.73
2019-02-07T23:53:44.146Z,13.33
2019-02-07T23:56:13.648Z,10.10
2019-02-07T23:58:43.008Z,10.47
